This is the latest recevied weather packets stored in our database for station/object K5NWZ. If no packets are shown the sender has not sent any weather packets the latest 10 day(s).
| Time | Temp. | Humidity | Pressure | Rain* | Wind** | Luminosity | Snow |
|---|---|---|---|---|---|---|---|
| 1787624772 | 25.56° C | 41% | 1031.8 hPa | 0 mm | - | 0 W/m² | - |
| 1787624472 | 25.56° C | 41% | 1031.7 hPa | 0 mm | - | 0 W/m² | - |
| 1787624167 | 25.56° C | 41% | 1031.5 hPa | 0 mm | - | 0 W/m² | - |
| 1787623862 | 26.11° C | 41% | 1031.7 hPa | 0 mm | - | 0 W/m² | - |
| 1787623562 | 26.67° C | 38% | 1031.1 hPa | 0 mm | - | 0 W/m² | - |
| 1787623256 | 25.56° C | 40% | 1031.1 hPa | 0 mm | - | 0 W/m² | - |
| 1787622950 | 25.56° C | 41% | 1031.5 hPa | 0 mm | - | 0 W/m² | - |
| 1787622647 | 26.11° C | 41% | 1031.5 hPa | 0 mm | - | 0 W/m² | - |
| 1787622344 | 26.11° C | 42% | 1031.1 hPa | 0 mm | - | 0 W/m² | - |
| 1787622038 | 26.11° C | 40% | 1031.2 hPa | 0 mm | - | 1 W/m² | - |
| 1787621737 | 26.11° C | 40% | 1031.1 hPa | 0 mm | - | 1 W/m² | - |
| 1787621433 | 27.22° C | 38% | 1031 hPa | 0 mm | - | 3 W/m² | - |
| 1787621129 | 27.22° C | 37% | 1031.1 hPa | 0 mm | - | 4 W/m² | - |
| 1787620825 | 27.78° C | 34% | 1030.9 hPa | 0 mm | - | 5 W/m² | - |
| 1787620520 | 27.78° C | 32% | 1030.9 hPa | 0 mm | - | 6 W/m² | - |
| 1787620216 | 27.78° C | 34% | 1030.6 hPa | 0 mm | - | 7 W/m² | - |
| 1787619910 | 27.78° C | 34% | 1030.9 hPa | 0 mm | - | 7 W/m² | - |
| 1787619605 | 27.22° C | 34% | 1031.3 hPa | 0 mm | - | 7 W/m² | - |
| 1787619300 | 27.22° C | 35% | 1031.1 hPa | 0 mm | - | 8 W/m² | - |
| 1787618994 | 27.22° C | 36% | 1031 hPa | 0 mm | - | 9 W/m² | - |
| 1787618689 | 26.67° C | 37% | 1031 hPa | 0 mm | - | 12 W/m² | - |
| 1787618387 | 26.67° C | 36% | 1030.6 hPa | 0 mm | - | 14 W/m² | - |
| 1787618083 | 27.22° C | 38% | 1030.8 hPa | 0 mm | - | 13 W/m² | - |
| 1787617783 | 28.33° C | 36% | 1030.5 hPa | 0 mm | - | 11 W/m² | - |
| 1787617477 | 29.44° C | 31% | 1030.8 hPa | 0 mm | - | 10 W/m² | - |
* Rain latest hour (hover to see other rain measurements)
** Current wind speed in m/s (hover to see current wind gust speed)